Terminal Aerodrome Forecast
Issued by NWS Dodge City, KS

Home | Current Version | Previous Version | Graphics & Text | Print | Product List | Glossary Off
Versions: 1 2 3 4 5 6 7 8 9 10 11 12 13 14 15 16 17 18 19 20

000
FTUS43 KDDC 201120
TAFDDC
TAF
KDDC 201120Z 2012/2112 20008KT P6SM SKC
     FM201400 21012KT P6SM FEW200
     FM202100 18013KT P6SM FEW200
     FM210200 17012KT P6SM VCTS SCT050CB
     FM210400 17012KT P6SM SCT200=

USA.gov is the U.S. government's official web portal to all federal, state and local government web resources and services.